Time;durP1;ratioP1;P1;durP2;ratioP2;P2;SDS_P1;SDS_P2;PMS_P1;PMS_P2;Temp;Humidity;BMP_temperature;BMP_pressure;BME280_temperature;BME280_humidity;BME280_pressure;Samples;Min_cycle;Max_cycle;Signal;HPM_P1;HPM_P2
2023/07/05 00:02:20;;;;;;;11.60;5.40;;;;;;;27.33;60.88;98758.97;6246065;23;20156;-84
2023/07/05 00:04:45;;;;;;;9.57;5.57;;;;;;;27.16;60.92;98770.25;6246046;23;20573;-84
2023/07/05 00:07:11;;;;;;;13.27;5.93;;;;;;;27.11;61.06;98765.44;6219612;23;20191;-84
2023/07/05 00:09:36;;;;;;;10.63;5.50;;;;;;;27.07;61.46;98766.84;6219362;23;20176;-84
2023/07/05 00:12:02;;;;;;;10.23;5.70;;;;;;;27.00;61.46;98774.03;6246016;23;20485;-84
2023/07/05 00:14:28;;;;;;;11.77;5.28;;;;;;;26.96;62.05;98777.31;6246259;23;20628;-84
2023/07/05 00:16:54;;;;;;;8.73;5.00;;;;;;;26.74;63.17;98771.06;6219350;23;20153;-84
2023/07/05 00:19:19;;;;;;;7.87;4.67;;;;;;;26.68;63.49;98763.75;6219522;23;20481;-84
2023/07/05 00:21:45;;;;;;;10.70;5.57;;;;;;;26.73;63.63;98772.06;6219554;23;20479;-84
2023/07/05 00:24:10;;;;;;;10.87;5.50;;;;;;;26.76;63.73;98771.69;6246296;23;20227;-84
2023/07/05 00:26:35;;;;;;;10.87;5.50;;;;;;;26.77;63.74;98768.03;6245943;23;20565;-84
2023/07/05 00:29:01;;;;;;;10.53;5.37;;;;;;;26.76;63.57;98769.00;6246174;23;20731;-84
2023/07/05 00:31:26;;;;;;;10.13;5.07;;;;;;;26.76;63.16;98771.69;6247476;23;20224;-84
2023/07/05 00:33:52;;;;;;;10.37;5.67;;;;;;;26.86;62.92;98768.75;6248326;23;20604;-84
2023/07/05 00:36:17;;;;;;;9.80;5.73;;;;;;;26.84;63.34;98776.97;6221586;23;20153;-84
2023/07/05 00:38:43;;;;;;;9.63;5.50;;;;;;;26.84;63.15;98768.91;6247802;23;20577;-84
2023/07/05 00:41:08;;;;;;;12.47;5.17;;;;;;;26.82;63.13;98766.44;6248285;23;20219;-84
2023/07/05 00:43:34;;;;;;;15.20;5.27;;;;;;;26.81;63.60;98770.13;6248248;23;20145;-84
2023/07/05 00:46:17;;;;;;;8.47;4.97;;;;;;;26.77;63.20;98762.66;6221432;23;20157;-84
2023/07/05 00:48:51;;;;;;;9.63;5.50;;;;;;;26.63;64.07;98761.66;6248122;23;20244;-84
2023/07/05 00:51:21;;;;;;;9.98;5.82;;;;;;;26.54;63.95;98761.97;6247796;23;20137;-84
2023/07/05 00:53:47;;;;;;;9.63;5.47;;;;;;;26.49;63.94;98761.72;6247829;23;20465;-84
2023/07/05 00:56:20;;;;;;;9.03;5.47;;;;;;;26.46;64.24;98767.47;6247807;23;20145;-84
2023/07/05 00:58:46;;;;;;;9.13;5.50;;;;;;;26.46;64.39;98764.78;6247878;23;20134;-84
2023/07/05 01:01:11;;;;;;;10.17;5.47;;;;;;;26.50;64.01;98769.56;6248111;23;20590;-84
2023/07/05 01:03:37;;;;;;;9.75;5.30;;;;;;;26.43;64.50;98771.38;6221279;23;20230;-84
2023/07/05 01:06:06;;;;;;;8.57;5.57;;;;;;;26.42;64.84;98763.47;6248378;23;20176;-84
2023/07/05 01:08:31;;;;;;;9.07;5.70;;;;;;;26.46;64.38;98762.09;6247621;23;20175;-84
2023/07/05 01:11:09;;;;;;;12.07;6.10;;;;;;;26.49;64.46;98762.56;6247668;23;20227;-84
2023/07/05 01:13:41;;;;;;;12.45;5.75;;;;;;;26.46;64.07;98754.88;6248029;23;20556;-84
2023/07/05 01:16:22;;;;;;;11.13;5.95;;;;;;;26.40;64.58;98761.00;6247650;23;20149;-84
2023/07/05 01:19:05;;;;;;;11.23;5.40;;;;;;;26.31;64.94;98764.00;6247987;23;20130;-84
2023/07/05 01:21:50;;;;;;;10.23;5.65;;;;;;;26.34;65.15;98766.28;6248281;23;20208;-85
2023/07/05 01:24:29;;;;;;;8.95;5.43;;;;;;;26.32;65.27;98762.97;6247920;23;20137;-84
2023/07/05 01:27:10;;;;;;;9.00;5.80;;;;;;;26.41;64.26;98761.84;6248202;23;20644;-84
2023/07/05 01:30:20;;;;;;;10.50;5.50;;;;;;;26.35;64.38;98759.91;6247781;23;20168;-84
2023/07/05 01:32:55;;;;;;;10.25;6.07;;;;;;;26.27;64.35;98760.00;6247817;23;20137;-84
2023/07/05 01:35:29;;;;;;;12.47;5.73;;;;;;;26.17;64.80;98757.63;6221066;23;20155;-84
2023/07/05 01:37:55;;;;;;;15.80;5.53;;;;;;;26.08;65.31;98761.41;6221019;23;20137;-84
2023/07/05 01:40:21;;;;;;;8.57;5.43;;;;;;;26.03;65.87;98758.44;6247244;23;20236;-84
2023/07/05 01:42:50;;;;;;;10.70;5.70;;;;;;;25.95;66.19;98755.88;6247591;23;20183;-84
2023/07/05 01:45:17;;;;;;;12.67;5.90;;;;;;;25.91;66.10;98759.97;6220851;23;20160;-84
2023/07/05 01:47:50;;;;;;;9.13;4.83;;;;;;;25.89;66.21;98764.69;6220741;23;20268;-84
2023/07/05 01:50:26;;;;;;;7.70;4.73;;;;;;;25.87;66.47;98762.16;6248015;23;20542;-84
2023/07/05 01:53:15;;;;;;;9.63;6.17;;;;;;;25.87;66.41;98762.16;6220809;23;20153;-84
2023/07/05 01:55:58;;;;;;;10.93;5.80;;;;;;;25.88;66.38;98766.53;6247630;23;20140;-84
2023/07/05 01:58:28;;;;;;;9.03;5.70;;;;;;;25.90;65.92;98761.81;6247584;23;20200;-84
2023/07/05 02:00:57;;;;;;;10.37;5.53;;;;;;;25.83;66.13;98760.91;6247163;23;20156;-84
2023/07/05 02:03:25;;;;;;;12.43;5.63;;;;;;;25.84;66.16;98765.22;6247457;23;20595;-84
2023/07/05 02:05:51;;;;;;;10.83;5.60;;;;;;;25.89;65.94;98768.19;6247465;23;20152;-84
2023/07/05 02:08:19;;;;;;;10.00;6.10;;;;;;;25.86;66.31;98768.59;6246970;23;20172;-84
2023/07/05 02:10:44;;;;;;;10.10;5.80;;;;;;;25.71;66.99;98770.41;6247069;23;20173;-84
2023/07/05 02:13:11;;;;;;;9.77;5.57;;;;;;;25.67;67.04;98774.50;6220578;23;20165;-84
2023/07/05 02:15:38;;;;;;;12.53;5.27;;;;;;;25.63;67.20;98765.97;6246994;23;20165;-84
2023/07/05 02:18:04;;;;;;;9.17;4.77;;;;;;;25.59;67.05;98766.53;6247008;23;20141;-84
2023/07/05 02:20:30;;;;;;;11.50;6.47;;;;;;;25.53;67.58;98767.25;6220475;23;20157;-84
2023/07/05 02:22:56;;;;;;;10.43;6.23;;;;;;;25.57;67.59;98771.25;6246848;23;20145;-84
2023/07/05 02:25:22;;;;;;;9.07;5.50;;;;;;;25.57;67.42;98774.78;6247195;23;20211;-84
2023/07/05 02:27:47;;;;;;;8.57;5.30;;;;;;;25.68;67.10;98778.88;6247127;23;20204;-84
2023/07/05 02:30:13;;;;;;;11.70;6.07;;;;;;;25.69;66.68;98780.50;6246895;23;20315;-84
2023/07/05 02:32:40;;;;;;;11.67;5.87;;;;;;;25.55;67.42;98773.31;6220431;23;20598;-84
2023/07/05 02:35:07;;;;;;;9.80;5.87;;;;;;;25.47;67.85;98768.03;6246849;23;20156;-84
2023/07/05 02:37:32;;;;;;;9.43;5.60;;;;;;;25.48;67.80;98769.66;6246665;23;20153;-83
2023/07/05 02:39:58;;;;;;;13.00;6.10;;;;;;;25.42;68.27;98771.19;6246630;23;20165;-84
2023/07/05 02:42:24;;;;;;;10.23;6.20;;;;;;;25.38;68.58;98774.44;6220279;23;20180;-83
2023/07/05 02:44:51;;;;;;;9.57;5.83;;;;;;;25.37;68.58;98770.06;6246715;23;20145;-84
2023/07/05 02:47:18;;;;;;;10.03;5.60;;;;;;;25.41;67.76;98774.09;6220254;23;20478;-84
2023/07/05 02:49:44;;;;;;;11.27;6.37;;;;;;;25.37;68.21;98775.44;6220162;23;20622;-84
2023/07/05 02:52:09;;;;;;;15.40;6.27;;;;;;;25.34;68.83;98767.78;6220227;23;20184;-84
2023/07/05 02:54:35;;;;;;;11.30;6.10;;;;;;;25.34;68.89;98775.84;6247018;23;20553;-84
2023/07/05 02:57:01;;;;;;;9.70;5.57;;;;;;;25.43;68.68;98774.72;6246631;23;20247;-84
2023/07/05 02:59:26;;;;;;;10.53;6.30;;;;;;;25.43;68.36;98772.03;6220176;23;20145;-84
2023/07/05 03:01:52;;;;;;;8.97;5.60;;;;;;;25.48;68.33;98775.03;6246893;23;20210;-84
2023/07/05 03:04:17;;;;;;;11.07;6.30;;;;;;;25.38;68.96;98790.53;6246854;23;20183;-83
2023/07/05 03:06:43;;;;;;;11.57;6.03;;;;;;;25.39;68.50;98773.44;6246573;23;20145;-83
2023/07/05 03:09:08;;;;;;;11.07;6.13;;;;;;;25.32;69.10;98776.00;6246411;23;20254;-84
2023/07/05 03:11:34;;;;;;;10.40;6.43;;;;;;;25.26;69.33;98775.91;6246486;23;20577;-83
2023/07/05 03:13:59;;;;;;;9.97;6.43;;;;;;;25.24;69.66;98772.56;6246469;23;20172;-83
2023/07/05 03:16:24;;;;;;;14.30;7.40;;;;;;;25.24;69.50;98767.19;6220035;23;20153;-83
2023/07/05 03:18:50;;;;;;;11.70;6.17;;;;;;;25.26;69.14;98767.88;6247086;23;20152;-84
2023/07/05 03:21:15;;;;;;;8.67;5.90;;;;;;;25.25;69.22;98761.66;6246725;23;20149;-83
2023/07/05 03:23:41;;;;;;;9.30;5.07;;;;;;;25.23;69.52;98760.19;6246365;23;20489;-84
2023/07/05 03:26:08;;;;;;;9.20;6.23;;;;;;;25.24;69.60;98768.03;6246694;23;20153;-84
2023/07/05 03:28:35;;;;;;;14.77;6.40;;;;;;;25.23;69.77;98761.03;6246102;23;20172;-84
2023/07/05 03:31:21;;;;;;;10.65;5.97;;;;;;;25.26;70.19;98760.63;6246650;23;20211;-84
2023/07/05 03:33:46;;;;;;;12.20;7.07;;;;;;;25.23;70.38;98760.19;6246033;23;20187;-84
2023/07/05 03:36:15;;;;;;;12.43;5.93;;;;;;;25.31;70.00;98762.78;6219813;23;20193;-83
2023/07/05 03:38:41;;;;;;;9.53;6.07;;;;;;;25.38;69.57;98769.06;6219627;23;20180;-83
2023/07/05 03:41:11;;;;;;;10.60;6.40;;;;;;;25.35;69.47;98772.97;6219870;23;20538;-83
2023/07/05 03:43:37;;;;;;;11.50;5.83;;;;;;;25.34;69.95;98762.41;6246560;23;20153;-84
2023/07/05 03:46:09;;;;;;;9.83;6.33;;;;;;;25.30;70.58;98766.47;6246513;23;20153;-83
2023/07/05 03:48:39;;;;;;;10.23;6.47;;;;;;;25.27;71.61;98766.84;6246059;23;20252;-83
2023/07/05 03:51:05;;;;;;;11.07;6.63;;;;;;;25.26;72.11;98770.56;6246858;23;20146;-83
2023/07/05 03:53:33;;;;;;;12.47;7.63;;;;;;;25.30;72.40;98766.47;6219747;23;20179;-83
2023/07/05 03:56:07;;;;;;;12.80;7.10;;;;;;;25.30;72.88;98774.53;6246131;23;20156;-83
2023/07/05 03:58:33;;;;;;;17.40;8.53;;;;;;;25.39;72.48;98773.44;6219406;23;20195;-83
2023/07/05 04:01:22;;;;;;;11.60;7.40;;;;;;;25.43;72.61;98778.25;6245935;23;20153;-83
2023/07/05 04:03:50;;;;;;;11.90;7.17;;;;;;;25.39;73.29;98771.56;6245302;23;20172;-83
2023/07/05 04:06:17;;;;;;;12.00;7.10;;;;;;;25.44;73.60;98765.66;6219106;23;20225;-83
2023/07/05 04:08:43;;;;;;;14.87;8.10;;;;;;;25.48;73.99;98767.00;6245938;23;20553;-83
2023/07/05 04:11:09;;;;;;;14.53;7.60;;;;;;;25.53;74.05;98754.69;6246004;23;20572;-83
2023/07/05 04:13:35;;;;;;;12.40;7.93;;;;;;;25.62;74.24;98764.34;6246003;23;20168;-83
2023/07/05 04:16:06;;;;;;;14.20;7.47;;;;;;;25.74;73.86;98770.06;6246619;23;20216;-83
2023/07/05 04:18:32;;;;;;;12.30;7.37;;;;;;;25.86;73.53;98762.38;6219564;23;20145;-83
2023/07/05 04:20:58;;;;;;;12.93;7.43;;;;;;;25.89;73.81;98764.69;6245980;23;20179;-83
2023/07/05 04:23:24;;;;;;;12.73;8.33;;;;;;;25.99;73.86;98757.19;6219430;23;20157;-83
2023/07/05 04:26:00;;;;;;;14.83;8.93;;;;;;;26.07;73.53;98763.25;6246275;23;20224;-83
2023/07/05 04:28:25;;;;;;;15.07;7.37;;;;;;;26.10;73.63;98760.19;6246183;23;20718;-83
2023/07/05 04:30:51;;;;;;;15.13;8.73;;;;;;;26.07;74.46;98760.56;6219358;23;20180;-84
2023/07/05 04:33:16;;;;;;;13.33;8.57;;;;;;;26.13;73.96;98754.47;6245862;23;20159;-83
2023/07/05 04:35:49;;;;;;;17.50;9.73;;;;;;;26.04;75.07;98760.97;6245866;23;20160;-83
2023/07/05 04:38:15;;;;;;;15.70;9.50;;;;;;;26.02;75.73;98756.81;6245873;23;20211;-83
2023/07/05 04:40:41;;;;;;;15.43;8.43;;;;;;;26.12;76.13;98768.94;6219366;23;20165;-83
2023/07/05 04:43:06;;;;;;;14.93;8.32;;;;;;;26.16;76.19;98764.84;6219494;23;20177;-84
2023/07/05 04:45:32;;;;;;;13.48;8.23;;;;;;;26.28;75.83;98757.16;6220040;23;20170;-84
2023/07/05 04:47:57;;;;;;;14.75;8.95;;;;;;;26.28;74.85;98762.53;6246137;23;20254;-84
2023/07/05 04:50:23;;;;;;;14.00;8.63;;;;;;;26.40;74.40;98752.94;6245804;23;20591;-84
2023/07/05 04:52:48;;;;;;;14.85;9.00;;;;;;;26.68;71.97;98769.13;6245845;23;20150;-84
2023/07/05 04:55:14;;;;;;;14.80;9.23;;;;;;;26.76;70.86;98766.31;6245820;23;20576;-84
2023/07/05 04:57:41;;;;;;;16.45;7.93;;;;;;;26.87;70.13;98771.22;6246233;23;20169;-84
2023/07/05 05:00:08;;;;;;;13.68;8.68;;;;;;;27.00;70.06;98776.72;6245790;23;20146;-84
2023/07/05 05:02:33;;;;;;;15.67;8.43;;;;;;;27.04;69.70;98772.63;6246097;23;20227;-84
2023/07/05 05:04:58;;;;;;;16.48;9.75;;;;;;;27.11;69.54;98773.53;6245784;23;20145;-84
2023/07/05 05:07:24;;;;;;;15.80;9.13;;;;;;;27.24;68.76;98770.09;6245743;23;20150;-84
2023/07/05 05:09:49;;;;;;;15.50;8.93;;;;;;;27.25;68.05;98769.88;6245666;23;20252;-84
2023/07/05 05:12:15;;;;;;;13.73;8.63;;;;;;;27.33;68.48;98761.66;6245946;23;20184;-84
2023/07/05 05:14:40;;;;;;;16.03;8.63;;;;;;;27.48;67.20;98753.53;6245664;23;20156;-84
2023/07/05 05:17:06;;;;;;;13.63;8.40;;;;;;;27.66;66.70;98761.94;6246078;23;20146;-84
2023/07/05 05:19:31;;;;;;;15.53;8.73;;;;;;;27.88;65.76;98770.78;6247573;23;20153;-84
2023/07/05 05:21:57;;;;;;;13.10;8.77;;;;;;;28.02;66.09;98769.81;6247858;23;20149;-84
2023/07/05 05:24:22;;;;;;;15.57;8.30;;;;;;;28.25;65.19;98778.41;6221078;23;20227;-84
2023/07/05 05:26:48;;;;;;;15.87;8.60;;;;;;;28.57;63.34;98772.28;6221084;23;20551;-84
2023/07/05 05:29:13;;;;;;;12.67;8.93;;;;;;;29.08;62.50;98775.31;6220933;23;20179;-84
2023/07/05 05:31:39;;;;;;;12.57;8.68;;;;;;;29.43;60.17;98765.13;6247447;23;20150;-84
2023/07/05 05:34:04;;;;;;;14.38;9.13;;;;;;;29.38;59.35;98766.78;6247350;23;20145;-84
2023/07/05 05:36:29;;;;;;;13.25;8.60;;;;;;;29.40;60.42;98764.75;6247425;23;20569;-84
2023/07/05 05:38:55;;;;;;;14.00;8.53;;;;;;;29.38;60.49;98767.63;6247796;23;20161;-84
2023/07/05 05:41:20;;;;;;;17.38;9.48;;;;;;;29.27;61.57;98767.44;6220997;23;20149;-84
2023/07/05 05:43:46;;;;;;;18.02;10.05;;;;;;;29.27;60.68;98770.16;6220915;23;20149;-84
2023/07/05 05:46:11;;;;;;;15.77;9.95;;;;;;;29.20;60.49;98762.88;6247347;23;20145;-84
2023/07/05 05:48:37;;;;;;;13.52;8.73;;;;;;;29.14;61.49;98752.06;6247273;23;20176;-84
2023/07/05 05:51:02;;;;;;;15.82;9.35;;;;;;;29.09;62.08;98762.63;6247961;23;20168;-84
2023/07/05 05:53:28;;;;;;;15.05;9.32;;;;;;;28.87;60.16;98759.31;6247278;23;20601;-85
2023/07/05 05:55:57;;;;;;;13.68;7.25;;;;;;;28.75;59.35;98760.13;6247858;23;20153;-84
2023/07/05 05:58:23;;;;;;;12.75;6.90;;;;;;;28.72;60.37;98760.53;6220670;23;20314;-84
2023/07/05 06:00:49;;;;;;;10.75;7.43;;;;;;;28.78;59.94;98762.41;6221421;23;20161;-84
2023/07/05 06:03:14;;;;;;;19.05;7.82;;;;;;;28.55;59.74;98771.69;6220652;23;20580;-84
2023/07/05 06:05:41;;;;;;;11.25;6.65;;;;;;;28.55;60.68;98777.06;6247118;23;20156;-84
2023/07/05 06:08:06;;;;;;;11.55;6.45;;;;;;;28.64;60.60;98769.66;6220528;23;20674;-84
2023/07/05 06:10:32;;;;;;;10.90;7.07;;;;;;;28.59;60.73;98769.38;6247100;23;20240;-84
2023/07/05 06:12:58;;;;;;;12.25;7.13;;;;;;;28.63;61.42;98768.00;6247073;23;20149;-84
2023/07/05 06:15:23;;;;;;;9.15;6.80;;;;;;;28.67;61.36;98768.41;6220602;23;20474;-85
2023/07/05 06:17:49;;;;;;;9.30;6.63;;;;;;;28.64;62.13;98770.47;6247016;23;20149;-85
2023/07/05 06:20:14;;;;;;;12.82;7.10;;;;;;;28.73;60.99;98768.41;6247696;23;20153;-85
2023/07/05 06:22:40;;;;;;;9.02;6.60;;;;;;;28.88;60.45;98776.34;6246993;23;20169;-85
2023/07/05 06:25:07;;;;;;;11.70;5.90;;;;;;;29.06;59.85;98773.84;6246932;23;20605;-85
2023/07/05 06:27:33;;;;;;;8.70;6.20;;;;;;;29.24;59.25;98771.41;6246581;23;20153;-86
2023/07/05 06:29:59;;;;;;;8.07;5.43;;;;;;;29.47;56.78;98762.84;6246889;23;20153;-85
2023/07/05 06:32:25;;;;;;;12.45;5.82;;;;;;;29.71;57.24;98773.00;6246936;23;20530;-85
2023/07/05 06:34:51;;;;;;;10.10;5.72;;;;;;;29.94;55.56;98772.53;6246814;23;20160;-85
2023/07/05 06:37:17;;;;;;;10.63;5.88;;;;;;;30.08;52.64;98769.59;6220411;23;20161;-85
2023/07/05 06:39:42;;;;;;;8.27;4.97;;;;;;;30.19;50.91;98763.50;6220143;23;20503;-86
2023/07/05 06:42:08;;;;;;;8.75;5.72;;;;;;;30.32;51.32;98760.72;6220265;23;20192;-85
2023/07/05 06:44:33;;;;;;;11.52;5.70;;;;;;;30.45;51.76;98765.28;6246805;23;20145;-85
2023/07/05 06:46:59;;;;;;;10.10;5.80;;;;;;;30.57;52.27;98760.84;6246690;23;20532;-86
2023/07/05 06:49:24;;;;;;;13.27;6.72;;;;;;;30.64;52.57;98764.34;6246999;23;20234;-86
2023/07/05 06:51:50;;;;;;;8.02;5.55;;;;;;;30.58;53.69;98749.00;6220286;23;20156;-85
2023/07/05 06:54:15;;;;;;;8.75;5.32;;;;;;;30.72;51.94;98752.41;6246648;23;20156;-85
2023/07/05 06:56:41;;;;;;;7.45;5.22;;;;;;;30.87;52.99;98758.38;6247028;23;20519;-85
2023/07/05 06:59:07;;;;;;;8.02;5.82;;;;;;;31.10;51.29;98760.50;6220115;23;20157;-85
2023/07/05 07:01:33;;;;;;;7.95;5.20;;;;;;;31.33;51.58;98760.72;6246565;23;20561;-86
2023/07/05 07:03:58;;;;;;;12.18;5.88;;;;;;;31.57;48.38;98766.16;6220847;23;20565;-85
2023/07/05 07:06:23;;;;;;;12.35;5.32;;;;;;;31.72;47.23;98751.41;6246533;23;20149;-86
2023/07/05 07:08:49;;;;;;;9.93;5.85;;;;;;;31.77;49.49;98755.09;6246413;23;20601;-85
2023/07/05 07:11:14;;;;;;;9.07;5.03;;;;;;;31.83;48.93;98754.19;6246438;23;20450;-86
2023/07/05 07:13:40;;;;;;;10.77;5.40;;;;;;;31.94;46.92;98752.63;6220044;23;20600;-86
2023/07/05 07:16:14;;;;;;;7.05;4.95;;;;;;;32.16;47.07;98751.94;6246518;23;20255;-86
2023/07/05 07:18:44;;;;;;;9.25;5.45;;;;;;;32.33;45.75;98748.59;6246493;23;20134;-86
2023/07/05 07:21:10;;;;;;;9.48;5.30;;;;;;;32.44;47.94;98745.13;6247119;23;20137;-86
2023/07/05 07:23:36;;;;;;;10.02;5.03;;;;;;;32.53;45.72;98757.31;6246394;23;20153;-86
2023/07/05 07:26:04;;;;;;;9.38;5.28;;;;;;;32.59;47.41;98745.56;6246723;23;20173;-86
2023/07/05 07:28:30;;;;;;;9.00;5.47;;;;;;;32.68;47.86;98746.88;6219757;23;20169;-86
2023/07/05 07:30:56;;;;;;;6.85;4.80;;;;;;;32.87;48.59;98744.91;6246294;23;20154;-86
2023/07/05 07:33:22;;;;;;;7.55;4.65;;;;;;;33.04;46.29;98741.34;6246118;23;20157;-86
2023/07/05 07:35:48;;;;;;;8.55;5.60;;;;;;;33.38;46.28;98740.53;6219826;23;20599;-86
2023/07/05 07:38:14;;;;;;;11.68;4.88;;;;;;;33.56;46.35;98738.78;6246582;23;20141;-86
2023/07/05 07:40:40;;;;;;;7.13;4.38;;;;;;;33.63;45.29;98740.31;6245906;23;20161;-86
2023/07/05 07:43:06;;;;;;;7.78;4.78;;;;;;;33.69;45.38;98733.09;6246232;23;20211;-86
2023/07/05 07:45:32;;;;;;;5.72;4.38;;;;;;;33.86;45.29;98740.25;6246110;23;20145;-86
2023/07/05 07:47:58;;;;;;;7.32;5.00;;;;;;;34.16;44.88;98739.28;6219652;23;20609;-87
2023/07/05 07:50:23;;;;;;;7.25;4.68;;;;;;;34.22;44.25;98736.44;6246137;23;20149;-87
2023/07/05 07:52:49;;;;;;;7.97;4.75;;;;;;;34.13;43.33;98732.44;6219649;23;20240;-86
2023/07/05 07:55:14;;;;;;;7.45;4.30;;;;;;;34.19;41.40;98739.63;6246114;23;20146;-87
2023/07/05 07:57:40;;;;;;;6.15;4.00;;;;;;;34.25;42.22;98737.84;6219696;23;20153;-86
2023/07/05 08:00:10;;;;;;;6.68;4.78;;;;;;;34.50;39.06;98741.03;6246106;23;20179;-87
2023/07/05 08:02:36;;;;;;;10.13;4.22;;;;;;;34.55;39.83;98742.00;6246425;23;20202;-87
2023/07/05 08:05:02;;;;;;;7.60;4.90;;;;;;;34.57;38.21;98744.47;6219670;23;20150;-87
2023/07/05 08:07:28;;;;;;;8.55;4.72;;;;;;;34.55;38.29;98739.28;6246022;23;20465;-86
2023/07/05 08:09:54;;;;;;;8.02;5.03;;;;;;;34.47;40.63;98739.63;6245935;23;20182;-87
2023/07/05 08:12:20;;;;;;;6.88;4.63;;;;;;;34.73;40.42;98742.84;6245991;23;20148;-87
2023/07/05 08:14:45;;;;;;;7.03;4.40;;;;;;;34.95;38.82;98747.34;6219545;23;20533;-86
2023/07/05 08:17:11;;;;;;;8.52;4.75;;;;;;;35.01;37.54;98738.16;6246303;23;20156;-87
2023/07/05 08:19:37;;;;;;;9.30;4.30;;;;;;;35.07;37.76;98737.22;6246256;23;20179;-86
2023/07/05 08:22:03;;;;;;;8.00;4.88;;;;;;;35.04;38.67;98742.28;6219370;23;20168;-87
2023/07/05 08:24:29;;;;;;;11.05;4.60;;;;;;;34.95;39.01;98744.63;6246259;23;20476;-87
2023/07/05 08:26:55;;;;;;;8.88;4.60;;;;;;;34.79;38.85;98734.53;6246215;23;20160;-87
2023/07/05 08:29:22;;;;;;;11.05;5.20;;;;;;;34.57;41.13;98742.56;6219304;23;20169;-86
2023/07/05 08:31:48;;;;;;;12.02;5.18;;;;;;;34.87;39.88;98733.31;6246306;23;20212;-87
2023/07/05 08:34:14;;;;;;;10.80;5.93;;;;;;;35.06;40.15;98743.72;6219495;23;20157;-86
2023/07/05 08:36:41;;;;;;;13.07;6.50;;;;;;;35.16;40.75;98734.91;6246271;23;20145;-87
2023/07/05 08:39:08;;;;;;;11.95;6.88;;;;;;;35.11;41.41;98740.28;6246008;23;20157;-86
2023/07/05 08:41:43;;;;;;;16.63;8.38;;;;;;;35.03;40.06;98741.50;6246274;23;20137;-87
2023/07/05 08:44:27;;;;;;;18.42;8.93;;;;;;;35.17;41.85;98736.53;6219488;23;20141;-87
2023/07/05 08:47:13;;;;;;;19.17;8.02;;;;;;;35.06;42.94;98734.75;6246569;23;20153;-87
2023/07/05 08:49:47;;;;;;;14.60;7.97;;;;;;;35.15;41.17;98733.25;6246509;23;20158;-86
2023/07/05 08:52:23;;;;;;;12.18;7.28;;;;;;;35.47;40.37;98728.03;6247545;23;20569;-87
2023/07/05 08:54:57;;;;;;;15.23;8.50;;;;;;;35.68;39.09;98727.25;6221289;23;20575;-87
2023/07/05 08:57:38;;;;;;;11.30;7.18;;;;;;;35.72;40.32;98725.66;6221383;23;20561;-87
2023/07/05 09:00:11;;;;;;;14.63;6.78;;;;;;;35.66;40.32;98729.44;6222025;23;20204;-87
2023/07/05 09:02:38;;;;;;;10.95;6.38;;;;;;;35.70;42.50;98725.09;6248074;23;20569;-86
2023/07/05 09:05:33;;;;;;;12.73;7.00;;;;;;;35.93;38.04;98724.06;6247745;23;20149;-88
2023/07/05 09:08:16;;;;;;;10.88;6.05;;;;;;;35.90;40.84;98721.84;6248130;23;20176;-87
2023/07/05 09:10:52;;;;;;;11.23;6.15;;;;;;;35.73;38.00;98722.72;6248066;23;20138;-87
2023/07/05 09:13:26;;;;;;;9.48;5.68;;;;;;;35.68;38.52;98721.81;6222244;23;20595;-87
2023/07/05 09:16:01;;;;;;;10.15;6.13;;;;;;;35.97;38.88;98719.72;6221559;23;20165;-87
2023/07/05 09:19:00;;;;;;;10.10;6.72;;;;;;;36.04;40.59;98717.66;6221137;23;20147;-87
2023/07/05 09:21:37;;;;;;;9.40;6.07;;;;;;;36.08;39.45;98713.34;6247909;23;20144;-86
2023/07/05 09:24:15;;;;;;;10.68;5.78;;;;;;;36.43;39.10;98713.72;6221072;23;20145;-87
2023/07/05 09:26:52;;;;;;;10.80;6.28;;;;;;;36.19;38.38;98707.75;6222831;23;20138;-87
2023/07/05 09:29:20;;;;;;;11.18;5.70;;;;;;;36.35;40.04;98700.53;6248089;23;20160;-87
2023/07/05 09:31:48;;;;;;;7.78;5.50;;;;;;;36.35;39.65;98704.09;6247436;23;20664;-87
2023/07/05 09:34:23;;;;;;;8.30;5.60;;;;;;;36.39;40.66;98707.16;6220929;23;20619;-88
2023/07/05 09:36:49;;;;;;;9.43;5.82;;;;;;;36.28;40.27;98699.94;6220984;23;20621;-87
2023/07/05 09:39:28;;;;;;;7.53;5.03;;;;;;;36.40;39.50;98697.88;6247491;23;20263;-87
2023/07/05 09:41:56;;;;;;;7.95;4.97;;;;;;;36.57;37.73;98687.69;6220978;23;20141;-87
2023/07/05 09:44:22;;;;;;;7.35;4.82;;;;;;;36.53;39.27;98691.22;6247369;23;20145;-87
2023/07/05 09:46:49;;;;;;;8.02;5.20;;;;;;;36.50;38.14;98689.84;6247652;23;20206;-87
2023/07/05 09:49:17;;;;;;;9.50;5.65;;;;;;;36.78;39.27;98678.59;6220695;23;20188;-87
2023/07/05 09:51:44;;;;;;;7.55;5.55;;;;;;;36.81;38.46;98683.56;6247278;23;20545;-87
2023/07/05 09:54:29;;;;;;;10.52;5.35;;;;;;;36.69;39.35;98682.88;6247167;23;20530;-87
2023/07/05 09:56:57;;;;;;;10.32;5.80;;;;;;;36.76;38.26;98678.06;6247513;23;20468;-87
2023/07/05 09:59:23;;;;;;;10.40;5.88;;;;;;;36.82;37.26;98679.72;6247870;23;20203;-87
2023/07/05 10:01:55;;;;;;;7.68;4.93;;;;;;;36.80;39.86;98670.13;6247093;23;20149;-87
2023/07/05 10:04:26;;;;;;;8.35;4.80;;;;;;;36.84;39.26;98669.38;6247869;23;20149;-87
2023/07/05 10:06:53;;;;;;;10.38;5.30;;;;;;;36.92;37.15;98665.34;6247548;23;20157;-87
2023/07/05 10:09:20;;;;;;;8.18;5.40;;;;;;;36.82;37.30;98662.53;6220535;23;20252;-87
2023/07/05 10:11:57;;;;;;;7.53;5.15;;;;;;;36.71;37.58;98661.63;6247067;23;20577;-87
2023/07/05 10:14:33;;;;;;;6.78;4.20;;;;;;;36.99;37.11;98655.03;6220560;23;20172;-87
2023/07/05 10:17:11;;;;;;;7.63;4.40;;;;;;;36.85;38.06;98653.78;6247107;23;20149;-87
2023/07/05 10:19:49;;;;;;;9.52;4.65;;;;;;;36.97;37.07;98643.53;6247443;23;20148;-87
2023/07/05 10:22:30;;;;;;;6.43;4.05;;;;;;;36.84;36.57;98649.44;6247727;23;20138;-88
2023/07/05 10:24:58;;;;;;;5.38;3.67;;;;;;;36.75;37.26;98656.44;6220414;23;20534;-88
2023/07/05 10:27:36;;;;;;;9.35;4.78;;;;;;;37.04;36.51;98643.31;6246966;23;20153;-87
2023/07/05 10:30:05;;;;;;;7.30;3.97;;;;;;;37.35;35.90;98639.66;6247224;23;20270;-87
2023/07/05 10:32:32;;;;;;;6.40;4.32;;;;;;;37.45;36.58;98646.03;6220675;23;20168;-87
2023/07/05 10:34:58;;;;;;;6.22;3.35;;;;;;;37.41;34.98;98644.94;6247592;23;20191;-87
2023/07/05 10:37:29;;;;;;;5.72;3.90;;;;;;;37.19;37.17;98637.94;6246876;23;20179;-86
2023/07/05 10:39:55;;;;;;;5.85;4.07;;;;;;;37.32;36.00;98640.19;6246681;23;20223;-86
2023/07/05 10:42:21;;;;;;;5.63;3.88;;;;;;;37.46;35.44;98639.50;6246820;23;20634;-86
2023/07/05 10:44:47;;;;;;;7.72;4.35;;;;;;;37.44;37.62;98635.38;6247083;23;20223;-87
2023/07/05 10:47:14;;;;;;;5.80;3.92;;;;;;;37.47;37.35;98621.19;6246803;23;20220;-87
2023/07/05 10:49:43;;;;;;;5.95;3.65;;;;;;;37.60;37.27;98634.38;6246660;23;20173;-86
2023/07/05 10:52:12;;;;;;;7.07;3.17;;;;;;;37.44;35.54;98632.66;6247071;23;20150;-86
2023/07/05 10:54:47;;;;;;;7.88;4.15;;;;;;;37.65;35.08;98623.44;6246708;23;20157;-86
2023/07/05 10:57:19;;;;;;;6.13;3.50;;;;;;;37.87;34.73;98618.63;6246658;23;20211;-87
2023/07/05 10:59:51;;;;;;;8.10;2.97;;;;;;;37.96;32.96;98622.47;6246623;23;20176;-87
2023/07/05 11:02:36;;;;;;;8.25;4.35;;;;;;;37.85;35.67;98626.25;6246630;23;20137;-87
2023/07/05 11:05:04;;;;;;;4.45;2.65;;;;;;;37.75;34.47;98617.19;6220249;23;20153;-87
2023/07/05 11:07:33;;;;;;;5.88;3.03;;;;;;;37.60;34.88;98614.41;6246417;23;20145;-87
2023/07/05 11:09:58;;;;;;;4.53;3.17;;;;;;;37.95;34.34;98618.09;6247154;23;20176;-86
2023/07/05 11:12:28;;;;;;;4.47;2.70;;;;;;;38.21;33.55;98616.22;6246480;23;20153;-86
2023/07/05 11:14:55;;;;;;;4.00;2.67;;;;;;;38.32;32.46;98622.56;6245981;23;20163;-87
2023/07/05 11:17:35;;;;;;;5.20;3.28;;;;;;;38.31;31.17;98610.81;6220069;23;20165;-88
2023/07/05 11:20:01;;;;;;;5.40;3.13;;;;;;;38.45;33.47;98611.91;6247201;23;20133;-87
2023/07/05 11:22:41;;;;;;;6.57;2.65;;;;;;;38.52;33.14;98603.44;6246385;23;20152;-87
2023/07/05 11:25:17;;;;;;;6.28;2.65;;;;;;;38.73;31.99;98602.34;6246790;23;20137;-87
2023/07/05 11:27:54;;;;;;;4.07;2.60;;;;;;;38.46;31.85;98601.78;6246647;23;20592;-87
2023/07/05 11:30:45;;;;;;;6.93;2.55;;;;;;;38.39;31.39;98593.03;6246339;23;20176;-88
2023/07/05 11:33:10;;;;;;;5.70;2.72;;;;;;;38.53;31.03;98602.31;6246318;23;20443;-87
2023/07/05 11:35:48;;;;;;;4.72;2.88;;;;;;;38.63;32.67;98603.13;6219721;23;20603;-87
2023/07/05 11:38:39;;;;;;;5.55;2.72;;;;;;;38.48;32.12;98588.63;6246619;23;20145;-87